Главная страница
METAR-TAF:

METAR-TAF

Аэропорты :

Hagerstown, Мэриленд, США

широта: 39-42-21N, долгота: 077-43-48W, высота над уровнем моря: 214 м

Текущие метеонаблюдения

Эта сводка был подготовлена 39 минут назад, в 15:53 UTC
Ветер 6 Узел от западный с порывами до 15 Узел
Температура 3°C
Влажность 60%
Давление 1021 hPa
Видимость: 16.1 км
Сплошная облачность на высоте 3000 фута

METAR: KHGR 161553Z 26006G15KT 10SM OVC030 03/M04 A3014 RMK AO2 SLP223 T00281044 $

Время: 11:32 (16:32 UTC)


TAF: отсутствует

Метеонаблюдения и прогнозы для более 4000 аэропортов (сводки METAR и TAF).

Имеющиеся станции представлены на карте желтыми и красными точками.

Чтобы увидеть название станции, наведите на нее мышь.

Затем щелкните, чтобы увидеть метеонаблюдения и метеопрогнозы.

Управление картой: чтобы увеличить масштаб, щелкните зеленые кнопки с черным крестиком; чтобы уменьшить масштаб, щелкните зеленую кнопку с тире; для просмотра соседних карт щелкайте зеленые стрелки.


METAR-TAF: